Time;durP1;ratioP1;P1;durP2;ratioP2;P2;SDS_P1;SDS_P2;PMS_P1;PMS_P2;Temp;Humidity;BMP_temperature;BMP_pressure;BME280_temperature;BME280_humidity;BME280_pressure;Samples;Min_cycle;Max_cycle;Signal;HPM_P1;HPM_P2
2022/03/15 00:00:09;;;;;;;;;;;;;;;;;;351285;28;1144;-78
2022/03/15 00:00:20;;;;;;;;;;;;;;;;;;351435;28;793;-78
2022/03/15 00:00:32;;;;;;;;;;;;;;;;;;351389;28;897;-78
2022/03/15 00:00:42;;;;;;;;;;;;;;;;;;351381;28;924;-78
2022/03/15 00:00:53;;;;;;;;;;;;;;;;;;351393;28;923;-78
2022/03/15 00:01:03;;;;;;;;;;;;;;;;;;351355;28;940;-78
2022/03/15 00:01:14;;;;;;;;;;;;;;;;;;351409;28;933;-78
2022/03/15 00:01:24;;;;;;;;;;;;;;;;;;351436;28;865;-78
2022/03/15 00:01:35;;;;;;;;;;;;;;;;;;351381;28;956;-78
2022/03/15 00:01:45;;;;;;;;;;;;;;;;;;351337;28;850;-77
2022/03/15 00:01:55;;;;;;;;;;;;;;;;;;351358;28;991;-78
2022/03/15 00:02:05;;;;;;;;;;;;;;;;;;351410;28;1011;-78
2022/03/15 00:02:16;;;;;;;;;;;;;;;;;;351332;28;1027;-78
2022/03/15 00:02:26;;;;;;;;;;;;;;;;;;351415;28;786;-77
2022/03/15 00:02:37;;;;;;;;;;;;;;;;;;351418;28;928;-78
2022/03/15 00:02:49;;;;;;;;;;;;;;;;;;351324;28;967;-78
2022/03/15 00:02:59;;;;;;;;;;;;;;;;;;351324;28;1910;-78
2022/03/15 00:03:09;;;;;;;;;;;;;;;;;;351372;28;963;-78
2022/03/15 00:03:20;;;;;;;;;;;;;;;;;;351317;28;921;-78
2022/03/15 00:03:30;;;;;;;;;;;;;;;;;;351382;28;1016;-77
2022/03/15 00:03:40;;;;;;;;;;;;;;;;;;350539;28;1741;-77
2022/03/15 00:03:51;;;;;;;;;;;;;;;;;;350822;28;1788;-78
2022/03/15 00:04:01;;;;;;;;;;;;;;;;;;349978;28;1038;-78
2022/03/15 00:04:11;;;;;;;;;;;;;;;;;;349983;28;857;-78
2022/03/15 00:04:21;;;;;;;;;;;;;;;;;;349964;28;924;-78
2022/03/15 00:04:31;;;;;;;;;;;;;;;;;;350029;28;817;-78
2022/03/15 00:04:42;;;;;;;;;;;;;;;;;;350024;28;960;-78
2022/03/15 00:04:53;;;;;;;;;;;;;;;;;;349974;28;996;-78
2022/03/15 00:05:04;;;;;;;;;;;;;;;;;;349918;28;1154;-78
2022/03/15 00:05:16;;;;;;;;;;;;;;;;;;349985;28;945;-77
2022/03/15 00:05:26;;;;;;;;;;;;;;;;;;349957;28;945;-77
2022/03/15 00:05:36;;;;;;;;;;;;;;;;;;349974;28;996;-78
2022/03/15 00:05:46;;;;;;;;;;;;;;;;;;350011;28;917;-78
2022/03/15 00:05:58;;;;;;;;;;;;;;;;;;349986;28;833;-78
2022/03/15 00:06:09;;;;;;;;;;;;;;;;;;350588;28;1542;-78
2022/03/15 00:06:19;;;;;;;;;;;;;;;;;;350600;28;1585;-78
2022/03/15 00:06:29;;;;;;;;;;;;;;;;;;350156;28;1721;-78
2022/03/15 00:06:40;;;;;;;;;;;;;;;;;;351064;28;1293;-78
2022/03/15 00:06:50;;;;;;;;;;;;;;;;;;351402;28;996;-78
2022/03/15 00:07:00;;;;;;;;;;;;;;;;;;351436;28;785;-78
2022/03/15 00:07:13;;;;;;;;;;;;;;;;;;351366;28;873;-78
2022/03/15 00:07:24;;;;;;;;;;;;;;;;;;350552;28;1627;-78
2022/03/15 00:07:35;;;;;;;;;;;;;;;;;;350717;28;1484;-78
2022/03/15 00:07:46;;;;;;;;;;;;;;;;;;350847;28;1039;-78
2022/03/15 00:07:56;;;;;;;;;;;;;;;;;;351334;28;944;-78
2022/03/15 00:08:07;;;;;;;;;;;;;;;;;;351292;28;1039;-78
2022/03/15 00:08:19;;;;;;;;;;;;;;;;;;351371;28;1031;-78
2022/03/15 00:08:30;;;;;;;;;;;;;;;;;;351445;28;932;-78
2022/03/15 00:08:40;;;;;;;;;;;;;;;;;;351345;28;921;-77
2022/03/15 00:08:51;;;;;;;;;;;;;;;;;;351371;28;959;-77
2022/03/15 00:09:01;;;;;;;;;;;;;;;;;;351405;28;932;-77
2022/03/15 00:09:11;;;;;;;;;;;;;;;;;;351216;28;1008;-78
2022/03/15 00:09:21;;;;;;;;;;;;;;;;;;351365;28;912;-78
2022/03/15 00:09:32;;;;;;;;;;;;;;;;;;351395;28;932;-78
2022/03/15 00:09:42;;;;;;;;;;;;;;;;;;351431;28;806;-78
2022/03/15 00:09:52;;;;;;;;;;;;;;;;;;351400;28;897;-78
2022/03/15 00:10:03;;;;;;;;;;;;;;;;;;351258;28;1046;-78
2022/03/15 00:10:15;;;;;;;;;;;;;;;;;;351369;28;893;-78
2022/03/15 00:10:25;;;;;;;;;;;;;;;;;;351431;28;1143;-78
2022/03/15 00:10:36;;;;;;;;;;;;;;;;;;351426;28;782;-78
2022/03/15 00:10:48;;;;;;;;;;;;;;;;;;351360;28;885;-78
2022/03/15 00:11:02;;;;;;;;;;;;;;;;;;351398;28;760;-78
2022/03/15 00:11:13;;;;;;;;;;;;;;;;;;351370;28;944;-78
2022/03/15 00:11:23;;;;;;;;;;;;;;;;;;351387;28;936;-78
2022/03/15 00:11:34;;;;;;;;;;;;;;;;;;351412;28;916;-78
2022/03/15 00:11:44;;;;;;;;;;;;;;;;;;351377;28;940;-78
2022/03/15 00:11:54;;;;;;;;;;;;;;;;;;351426;28;941;-78
2022/03/15 00:12:05;;;;;;;;;;;;;;;;;;351289;28;1000;-78
2022/03/15 00:12:16;;;;;;;;;;;;;;;;;;351231;28;1017;-78
2022/03/15 00:12:28;;;;;;;;;;;;;;;;;;351391;28;945;-78
2022/03/15 00:12:38;;;;;;;;;;;;;;;;;;351367;28;1028;-78
2022/03/15 00:12:49;;;;;;;;;;;;;;;;;;351389;28;925;-78
2022/03/15 00:12:59;;;;;;;;;;;;;;;;;;351375;28;971;-78
2022/03/15 00:13:10;;;;;;;;;;;;;;;;;;351202;28;1005;-78
2022/03/15 00:13:21;;;;;;;;;;;;;;;;;;351427;28;964;-78
2022/03/15 00:13:33;;;;;;;;;;;;;;;;;;351417;28;956;-78
2022/03/15 00:13:43;;;;;;;;;;;;;;;;;;351361;28;859;-78
2022/03/15 00:13:53;;;;;;;;;;;;;;;;;;351392;28;956;-78
2022/03/15 00:14:04;;;;;;;;;;;;;;;;;;351244;28;982;-78
2022/03/15 00:14:14;;;;;;;;;;;;;;;;;;351175;28;998;-78
2022/03/15 00:14:25;;;;;;;;;;;;;;;;;;351360;28;1133;-78
2022/03/15 00:14:37;;;;;;;;;;;;;;;;;;351405;28;972;-78
2022/03/15 00:14:48;;;;;;;;;;;;;;;;;;351377;28;888;-78
2022/03/15 00:14:58;;;;;;;;;;;;;;;;;;351257;28;1047;-78
2022/03/15 00:15:09;;;;;;;;;;;;;;;;;;351407;28;980;-78
2022/03/15 00:15:19;;;;;;;;;;;;;;;;;;351310;28;880;-78
2022/03/15 00:15:30;;;;;;;;;;;;;;;;;;351382;28;916;-78
2022/03/15 00:15:41;;;;;;;;;;;;;;;;;;351422;28;963;-78
2022/03/15 00:15:52;;;;;;;;;;;;;;;;;;351358;28;979;-78
2022/03/15 00:16:03;;;;;;;;;;;;;;;;;;351390;28;929;-78
2022/03/15 00:16:13;;;;;;;;;;;;;;;;;;351340;28;976;-78
2022/03/15 00:16:23;;;;;;;;;;;;;;;;;;351317;28;932;-78
2022/03/15 00:16:34;;;;;;;;;;;;;;;;;;351252;28;1634;-78
2022/03/15 00:16:44;;;;;;;;;;;;;;;;;;349941;28;1023;-78
2022/03/15 00:16:54;;;;;;;;;;;;;;;;;;349925;28;1004;-78
2022/03/15 00:17:05;;;;;;;;;;;;;;;;;;349953;28;1047;-78
2022/03/15 00:17:15;;;;;;;;;;;;;;;;;;349913;28;869;-78
2022/03/15 00:17:26;;;;;;;;;;;;;;;;;;350032;28;794;-78
2022/03/15 00:17:36;;;;;;;;;;;;;;;;;;349973;28;983;-78
2022/03/15 00:17:47;;;;;;;;;;;;;;;;;;349902;28;984;-78
2022/03/15 00:17:58;;;;;;;;;;;;;;;;;;349985;28;928;-78
2022/03/15 00:18:09;;;;;;;;;;;;;;;;;;349964;28;956;-78
2022/03/15 00:18:20;;;;;;;;;;;;;;;;;;349939;28;790;-78
2022/03/15 00:18:30;;;;;;;;;;;;;;;;;;349965;28;841;-78
2022/03/15 00:18:41;;;;;;;;;;;;;;;;;;349945;28;921;-78
2022/03/15 00:18:52;;;;;;;;;;;;;;;;;;349952;28;861;-78
2022/03/15 00:19:03;;;;;;;;;;;;;;;;;;349949;28;933;-78
2022/03/15 00:19:13;;;;;;;;;;;;;;;;;;349969;28;995;-78
2022/03/15 00:19:23;;;;;;;;;;;;;;;;;;349946;28;948;-78
2022/03/15 00:19:34;;;;;;;;;;;;;;;;;;349904;28;1321;-78
2022/03/15 00:19:44;;;;;;;;;;;;;;;;;;349901;28;786;-78
2022/03/15 00:19:54;;;;;;;;;;;;;;;;;;349985;28;909;-78
2022/03/15 00:20:06;;;;;;;;;;;;;;;;;;349989;28;838;-78
2022/03/15 00:20:20;;;;;;;;;;;;;;;;;;350198;28;1776;-78
2022/03/15 00:20:30;;;;;;;;;;;;;;;;;;349949;28;881;-78
2022/03/15 00:20:40;;;;;;;;;;;;;;;;;;349944;28;851;-78
2022/03/15 00:20:50;;;;;;;;;;;;;;;;;;349979;28;1511;-78
2022/03/15 00:21:02;;;;;;;;;;;;;;;;;;351270;28;1511;-78
2022/03/15 00:21:12;;;;;;;;;;;;;;;;;;351283;28;991;-78
2022/03/15 00:21:23;;;;;;;;;;;;;;;;;;351371;28;857;-77
2022/03/15 00:21:33;;;;;;;;;;;;;;;;;;351358;28;859;-77
2022/03/15 00:21:43;;;;;;;;;;;;;;;;;;351379;28;908;-78
2022/03/15 00:21:54;;;;;;;;;;;;;;;;;;351391;28;920;-77
2022/03/15 00:22:05;;;;;;;;;;;;;;;;;;351373;28;940;-78
2022/03/15 00:22:17;;;;;;;;;;;;;;;;;;351364;28;920;-78
2022/03/15 00:22:27;;;;;;;;;;;;;;;;;;351354;28;996;-78
2022/03/15 00:22:38;;;;;;;;;;;;;;;;;;351320;28;783;-78
2022/03/15 00:22:49;;;;;;;;;;;;;;;;;;351384;28;932;-78
2022/03/15 00:23:00;;;;;;;;;;;;;;;;;;350132;28;1976;-78
2022/03/15 00:23:10;;;;;;;;;;;;;;;;;;351380;28;948;-78
2022/03/15 00:23:21;;;;;;;;;;;;;;;;;;351213;28;991;-78
2022/03/15 00:23:31;;;;;;;;;;;;;;;;;;351327;28;984;-78
2022/03/15 00:23:42;;;;;;;;;;;;;;;;;;351390;28;924;-78
2022/03/15 00:23:52;;;;;;;;;;;;;;;;;;351414;28;790;-78
2022/03/15 00:24:04;;;;;;;;;;;;;;;;;;351219;28;1147;-78
2022/03/15 00:24:14;;;;;;;;;;;;;;;;;;351321;28;1027;-78
2022/03/15 00:24:25;;;;;;;;;;;;;;;;;;351255;28;1185;-78
2022/03/15 00:24:35;;;;;;;;;;;;;;;;;;351326;28;851;-77
2022/03/15 00:24:46;;;;;;;;;;;;;;;;;;351258;28;989;-77
2022/03/15 00:24:56;;;;;;;;;;;;;;;;;;351400;28;893;-77
2022/03/15 00:25:08;;;;;;;;;;;;;;;;;;351267;28;1644;-78
2022/03/15 00:25:18;;;;;;;;;;;;;;;;;;351088;28;1772;-78
2022/03/15 00:25:30;;;;;;;;;;;;;;;;;;349941;28;916;-78
2022/03/15 00:25:40;;;;;;;;;;;;;;;;;;349947;28;1043;-77
2022/03/15 00:25:51;;;;;;;;;;;;;;;;;;349969;28;999;-78
2022/03/15 00:26:01;;;;;;;;;;;;;;;;;;349875;28;1205;-78
2022/03/15 00:26:12;;;;;;;;;;;;;;;;;;349922;28;1041;-78
2022/03/15 00:26:22;;;;;;;;;;;;;;;;;;350018;28;995;-78
2022/03/15 00:26:34;;;;;;;;;;;;;;;;;;349961;28;988;-78
2022/03/15 00:26:44;;;;;;;;;;;;;;;;;;349934;28;921;-78
2022/03/15 00:26:54;;;;;;;;;;;;;;;;;;349965;28;908;-78
2022/03/15 00:27:05;;;;;;;;;;;;;;;;;;350000;28;870;-77
2022/03/15 00:27:15;;;;;;;;;;;;;;;;;;349983;28;892;-77
2022/03/15 00:27:25;;;;;;;;;;;;;;;;;;349950;28;1075;-77
2022/03/15 00:27:36;;;;;;;;;;;;;;;;;;349936;28;901;-77
2022/03/15 00:27:47;;;;;;;;;;;;;;;;;;349892;28;1011;-78
2022/03/15 00:27:57;;;;;;;;;;;;;;;;;;349972;28;981;-78
2022/03/15 00:28:07;;;;;;;;;;;;;;;;;;349992;28;901;-77
2022/03/15 00:28:18;;;;;;;;;;;;;;;;;;349978;28;983;-77
2022/03/15 00:28:29;;;;;;;;;;;;;;;;;;349963;28;952;-77
2022/03/15 00:28:40;;;;;;;;;;;;;;;;;;349955;28;941;-77
2022/03/15 00:28:50;;;;;;;;;;;;;;;;;;349891;28;1016;-78
2022/03/15 00:29:00;;;;;;;;;;;;;;;;;;349973;28;920;-78
2022/03/15 00:29:11;;;;;;;;;;;;;;;;;;349981;28;956;-78
2022/03/15 00:29:23;;;;;;;;;;;;;;;;;;349970;28;857;-78
2022/03/15 00:29:35;;;;;;;;;;;;;;;;;;349904;28;949;-77
2022/03/15 00:29:46;;;;;;;;;;;;;;;;;;349968;28;1158;-77
2022/03/15 00:29:56;;;;;;;;;;;;;;;;;;349844;28;1043;-77
2022/03/15 00:30:07;;;;;;;;;;;;;;;;;;349989;28;984;-78
2022/03/15 00:30:18;;;;;;;;;;;;;;;;;;349913;28;929;-78
2022/03/15 00:30:29;;;;;;;;;;;;;;;;;;349983;28;933;-78
2022/03/15 00:30:39;;;;;;;;;;;;;;;;;;350002;28;854;-77
2022/03/15 00:30:49;;;;;;;;;;;;;;;;;;350024;28;798;-78
2022/03/15 00:30:59;;;;;;;;;;;;;;;;;;349925;28;1069;-78
2022/03/15 00:31:10;;;;;;;;;;;;;;;;;;349952;28;838;-78
2022/03/15 00:31:20;;;;;;;;;;;;;;;;;;349921;28;1678;-78
2022/03/15 00:31:30;;;;;;;;;;;;;;;;;;349644;28;1782;-78
2022/03/15 00:31:41;;;;;;;;;;;;;;;;;;349783;28;2050;-78
2022/03/15 00:31:51;;;;;;;;;;;;;;;;;;349872;28;928;-78
2022/03/15 00:32:01;;;;;;;;;;;;;;;;;;349853;28;810;-78
2022/03/15 00:32:17;;;;;;;;;;;;;;;;;;349873;28;995;-78
2022/03/15 00:32:28;;;;;;;;;;;;;;;;;;349853;28;937;-78
2022/03/15 00:32:38;;;;;;;;;;;;;;;;;;349891;28;857;-78
2022/03/15 00:32:49;;;;;;;;;;;;;;;;;;349869;28;917;-78
2022/03/15 00:32:59;;;;;;;;;;;;;;;;;;349814;28;929;-78
2022/03/15 00:33:09;;;;;;;;;;;;;;;;;;349690;28;1170;-78
2022/03/15 00:33:19;;;;;;;;;;;;;;;;;;349761;28;1007;-78
2022/03/15 00:33:30;;;;;;;;;;;;;;;;;;349923;28;838;-78
2022/03/15 00:33:40;;;;;;;;;;;;;;;;;;349966;28;829;-78
2022/03/15 00:33:51;;;;;;;;;;;;;;;;;;349979;28;975;-78
2022/03/15 00:34:01;;;;;;;;;;;;;;;;;;349913;28;1001;-77
2022/03/15 00:34:11;;;;;;;;;;;;;;;;;;349832;28;1011;-77
2022/03/15 00:34:21;;;;;;;;;;;;;;;;;;349954;28;1051;-78
2022/03/15 00:34:31;;;;;;;;;;;;;;;;;;349984;28;984;-78
2022/03/15 00:34:42;;;;;;;;;;;;;;;;;;349970;28;932;-77
2022/03/15 00:34:52;;;;;;;;;;;;;;;;;;349906;28;1172;-77
2022/03/15 00:35:07;;;;;;;;;;;;;;;;;;349938;28;861;-78
2022/03/15 00:35:18;;;;;;;;;;;;;;;;;;349973;28;932;-78
2022/03/15 00:35:28;;;;;;;;;;;;;;;;;;349923;28;933;-78
2022/03/15 00:35:39;;;;;;;;;;;;;;;;;;350176;28;1540;-78
2022/03/15 00:35:51;;;;;;;;;;;;;;;;;;351366;28;972;-78
2022/03/15 00:36:01;;;;;;;;;;;;;;;;;;351397;28;1007;-78
2022/03/15 00:36:12;;;;;;;;;;;;;;;;;;351367;28;944;-78
2022/03/15 00:36:25;;;;;;;;;;;;;;;;;;351275;28;1034;-78
2022/03/15 00:36:37;;;;;;;;;;;;;;;;;;351322;28;992;-78
2022/03/15 00:36:48;;;;;;;;;;;;;;;;;;351395;28;984;-78
2022/03/15 00:36:59;;;;;;;;;;;;;;;;;;351295;28;948;-78
2022/03/15 00:37:09;;;;;;;;;;;;;;;;;;351337;28;897;-77
2022/03/15 00:37:20;;;;;;;;;;;;;;;;;;351272;28;1022;-77
2022/03/15 00:37:30;;;;;;;;;;;;;;;;;;351321;28;796;-77
2022/03/15 00:37:40;;;;;;;;;;;;;;;;;;351310;28;921;-78
2022/03/15 00:37:52;;;;;;;;;;;;;;;;;;351330;28;1003;-78
2022/03/15 00:38:03;;;;;;;;;;;;;;;;;;351303;28;774;-77
2022/03/15 00:38:13;;;;;;;;;;;;;;;;;;351367;28;881;-77
2022/03/15 00:38:24;;;;;;;;;;;;;;;;;;351341;28;960;-77
2022/03/15 00:38:34;;;;;;;;;;;;;;;;;;351270;28;1085;-78
2022/03/15 00:38:45;;;;;;;;;;;;;;;;;;351311;28;909;-78
2022/03/15 00:38:55;;;;;;;;;;;;;;;;;;351387;28;1089;-78
2022/03/15 00:39:05;;;;;;;;;;;;;;;;;;351306;28;940;-78
2022/03/15 00:39:16;;;;;;;;;;;;;;;;;;351323;28;1008;-78
2022/03/15 00:39:26;;;;;;;;;;;;;;;;;;351338;28;1220;-78
2022/03/15 00:39:37;;;;;;;;;;;;;;;;;;351314;28;825;-78
2022/03/15 00:39:47;;;;;;;;;;;;;;;;;;350592;28;1644;-78
2022/03/15 00:39:57;;;;;;;;;;;;;;;;;;350604;28;1755;-78
2022/03/15 00:40:07;;;;;;;;;;;;;;;;;;351297;28;988;-78
2022/03/15 00:40:18;;;;;;;;;;;;;;;;;;351318;28;846;-78
2022/03/15 00:40:28;;;;;;;;;;;;;;;;;;351350;28;987;-77
2022/03/15 00:40:40;;;;;;;;;;;;;;;;;;351292;28;917;-78
2022/03/15 00:40:51;;;;;;;;;;;;;;;;;;351331;28;876;-78
2022/03/15 00:41:01;;;;;;;;;;;;;;;;;;351395;28;956;-78
2022/03/15 00:41:11;;;;;;;;;;;;;;;;;;351350;28;862;-78
2022/03/15 00:41:22;;;;;;;;;;;;;;;;;;351285;28;968;-78
2022/03/15 00:41:32;;;;;;;;;;;;;;;;;;351377;28;857;-78
2022/03/15 00:41:42;;;;;;;;;;;;;;;;;;351311;28;1020;-78
2022/03/15 00:41:52;;;;;;;;;;;;;;;;;;351339;28;887;-78
2022/03/15 00:42:03;;;;;;;;;;;;;;;;;;351206;28;1012;-78
2022/03/15 00:42:13;;;;;;;;;;;;;;;;;;351372;28;917;-78
2022/03/15 00:42:23;;;;;;;;;;;;;;;;;;351370;28;853;-78
2022/03/15 00:42:34;;;;;;;;;;;;;;;;;;351331;28;814;-78
2022/03/15 00:42:47;;;;;;;;;;;;;;;;;;351386;28;913;-78
2022/03/15 00:42:58;;;;;;;;;;;;;;;;;;351098;28;1965;-78
2022/03/15 00:43:08;;;;;;;;;;;;;;;;;;351259;28;925;-78
2022/03/15 00:43:19;;;;;;;;;;;;;;;;;;351245;28;895;-78
2022/03/15 00:43:29;;;;;;;;;;;;;;;;;;351208;28;1015;-78
2022/03/15 00:43:39;;;;;;;;;;;;;;;;;;351279;28;778;-78
2022/03/15 00:43:50;;;;;;;;;;;;;;;;;;351226;28;861;-78
2022/03/15 00:44:00;;;;;;;;;;;;;;;;;;351286;28;1011;-78
2022/03/15 00:44:11;;;;;;;;;;;;;;;;;;351199;28;987;-78
2022/03/15 00:44:21;;;;;;;;;;;;;;;;;;351243;28;1167;-78
2022/03/15 00:44:31;;;;;;;;;;;;;;;;;;351100;28;1129;-77
2022/03/15 00:44:42;;;;;;;;;;;;;;;;;;351282;28;920;-78
2022/03/15 00:44:52;;;;;;;;;;;;;;;;;;351278;28;1102;-78
2022/03/15 00:45:03;;;;;;;;;;;;;;;;;;351336;28;908;-78
2022/03/15 00:45:13;;;;;;;;;;;;;;;;;;351368;28;794;-78
2022/03/15 00:45:23;;;;;;;;;;;;;;;;;;351273;27;1012;-77
2022/03/15 00:45:34;;;;;;;;;;;;;;;;;;351331;28;844;-79
2022/03/15 00:45:44;;;;;;;;;;;;;;;;;;351354;28;830;-78
2022/03/15 00:45:55;;;;;;;;;;;;;;;;;;350396;28;1662;-77
2022/03/15 00:46:05;;;;;;;;;;;;;;;;;;350540;28;1858;-77
2022/03/15 00:46:15;;;;;;;;;;;;;;;;;;349953;28;1000;-77
2022/03/15 00:46:25;;;;;;;;;;;;;;;;;;349945;28;968;-77
2022/03/15 00:46:36;;;;;;;;;;;;;;;;;;349947;28;972;-78
2022/03/15 00:46:46;;;;;;;;;;;;;;;;;;349907;28;968;-77
2022/03/15 00:46:56;;;;;;;;;;;;;;;;;;349931;28;979;-77
2022/03/15 00:47:06;;;;;;;;;;;;;;;;;;350040;28;936;-78
2022/03/15 00:47:17;;;;;;;;;;;;;;;;;;352563;28;1281;-78
2022/03/15 00:47:27;;;;;;;;;;;;;;;;;;352500;28;1046;-78
2022/03/15 00:47:37;;;;;;;;;;;;;;;;;;352559;28;1064;-78
2022/03/15 00:47:48;;;;;;;;;;;;;;;;;;352615;28;932;-78
2022/03/15 00:47:58;;;;;;;;;;;;;;;;;;352637;28;1113;-78
2022/03/15 00:48:08;;;;;;;;;;;;;;;;;;352683;28;785;-78
2022/03/15 00:48:19;;;;;;;;;;;;;;;;;;352531;28;1030;-78
2022/03/15 00:48:29;;;;;;;;;;;;;;;;;;352645;28;1023;-78
2022/03/15 00:48:39;;;;;;;;;;;;;;;;;;352655;28;834;-78
2022/03/15 00:48:50;;;;;;;;;;;;;;;;;;352412;28;1185;-78
2022/03/15 00:49:00;;;;;;;;;;;;;;;;;;352672;28;941;-78
2022/03/15 00:49:10;;;;;;;;;;;;;;;;;;351945;28;774;-78
2022/03/15 00:49:21;;;;;;;;;;;;;;;;;;349923;28;909;-77
2022/03/15 00:49:31;;;;;;;;;;;;;;;;;;350337;28;1539;-77
2022/03/15 00:49:41;;;;;;;;;;;;;;;;;;351285;28;1015;-78
2022/03/15 00:49:51;;;;;;;;;;;;;;;;;;351296;28;976;-77
2022/03/15 00:50:02;;;;;;;;;;;;;;;;;;351281;28;936;-78
2022/03/15 00:50:12;;;;;;;;;;;;;;;;;;351168;28;1175;-78
2022/03/15 00:50:23;;;;;;;;;;;;;;;;;;351175;28;1139;-78
2022/03/15 00:50:36;;;;;;;;;;;;;;;;;;351274;28;1152;-78
2022/03/15 00:50:47;;;;;;;;;;;;;;;;;;351254;28;869;-78
2022/03/15 00:50:57;;;;;;;;;;;;;;;;;;351201;28;850;-78
2022/03/15 00:51:07;;;;;;;;;;;;;;;;;;351273;28;1075;-78
2022/03/15 00:51:17;;;;;;;;;;;;;;;;;;351221;28;1132;-78
2022/03/15 00:51:29;;;;;;;;;;;;;;;;;;351026;28;1043;-78
2022/03/15 00:51:39;;;;;;;;;;;;;;;;;;351224;28;996;-77
2022/03/15 00:51:51;;;;;;;;;;;;;;;;;;351200;28;900;-77
2022/03/15 00:52:01;;;;;;;;;;;;;;;;;;351211;28;869;-77
2022/03/15 00:52:11;;;;;;;;;;;;;;;;;;351342;28;826;-77
2022/03/15 00:52:21;;;;;;;;;;;;;;;;;;349903;28;1624;-77
2022/03/15 00:52:32;;;;;;;;;;;;;;;;;;350577;28;1579;-78
2022/03/15 00:52:42;;;;;;;;;;;;;;;;;;351126;28;814;-77
2022/03/15 00:52:53;;;;;;;;;;;;;;;;;;351219;28;990;-77
2022/03/15 00:53:03;;;;;;;;;;;;;;;;;;351303;28;889;-77
2022/03/15 00:53:13;;;;;;;;;;;;;;;;;;351258;28;1028;-78
2022/03/15 00:53:24;;;;;;;;;;;;;;;;;;351366;28;841;-78
2022/03/15 00:53:34;;;;;;;;;;;;;;;;;;351348;28;887;-78
2022/03/15 00:53:44;;;;;;;;;;;;;;;;;;351214;28;1007;-78
2022/03/15 00:53:55;;;;;;;;;;;;;;;;;;351276;28;987;-78
2022/03/15 00:54:05;;;;;;;;;;;;;;;;;;351262;28;928;-78
2022/03/15 00:54:15;;;;;;;;;;;;;;;;;;351218;28;1153;-78
2022/03/15 00:54:25;;;;;;;;;;;;;;;;;;350999;28;1600;-78
2022/03/15 00:54:35;;;;;;;;;;;;;;;;;;349833;28;1713;-78
2022/03/15 00:54:46;;;;;;;;;;;;;;;;;;351132;28;1737;-78
2022/03/15 00:54:56;;;;;;;;;;;;;;;;;;351336;28;904;-78
2022/03/15 00:55:06;;;;;;;;;;;;;;;;;;351151;28;1009;-78
2022/03/15 00:55:17;;;;;;;;;;;;;;;;;;351347;28;931;-78
2022/03/15 00:55:27;;;;;;;;;;;;;;;;;;351388;28;927;-78
2022/03/15 00:55:37;;;;;;;;;;;;;;;;;;351283;28;918;-78
2022/03/15 00:55:48;;;;;;;;;;;;;;;;;;351336;28;904;-78
2022/03/15 00:55:58;;;;;;;;;;;;;;;;;;351321;28;975;-78
2022/03/15 00:56:08;;;;;;;;;;;;;;;;;;351254;28;1112;-77
2022/03/15 00:56:19;;;;;;;;;;;;;;;;;;351352;28;971;-77
2022/03/15 00:56:29;;;;;;;;;;;;;;;;;;351377;28;907;-77
2022/03/15 00:56:39;;;;;;;;;;;;;;;;;;351289;28;1097;-77
2022/03/15 00:56:50;;;;;;;;;;;;;;;;;;351351;28;908;-77
2022/03/15 00:57:01;;;;;;;;;;;;;;;;;;351363;28;833;-77
2022/03/15 00:57:11;;;;;;;;;;;;;;;;;;351341;28;919;-77
2022/03/15 00:57:21;;;;;;;;;;;;;;;;;;351311;28;1000;-77
2022/03/15 00:57:32;;;;;;;;;;;;;;;;;;351348;28;987;-77
2022/03/15 00:57:43;;;;;;;;;;;;;;;;;;351385;28;888;-77
2022/03/15 00:57:53;;;;;;;;;;;;;;;;;;351326;28;919;-77
2022/03/15 00:58:05;;;;;;;;;;;;;;;;;;351151;28;1208;-77
2022/03/15 00:58:15;;;;;;;;;;;;;;;;;;351404;28;964;-77
2022/03/15 00:58:25;;;;;;;;;;;;;;;;;;351201;28;1133;-77
2022/03/15 00:58:35;;;;;;;;;;;;;;;;;;351383;28;782;-77
2022/03/15 00:58:46;;;;;;;;;;;;;;;;;;351317;28;979;-77
2022/03/15 00:58:56;;;;;;;;;;;;;;;;;;351338;28;900;-78
2022/03/15 00:59:07;;;;;;;;;;;;;;;;;;351334;28;991;-78
2022/03/15 00:59:17;;;;;;;;;;;;;;;;;;351297;28;1182;-77
2022/03/15 00:59:27;;;;;;;;;;;;;;;;;;350290;28;1693;-77
2022/03/15 00:59:38;;;;;;;;;;;;;;;;;;349918;28;909;-77
2022/03/15 00:59:48;;;;;;;;;;;;;;;;;;349989;28;991;-77
2022/03/15 00:59:58;;;;;;;;;;;;;;;;;;349955;28;936;-77
2022/03/15 01:00:10;;;;;;;;;;;;;;;;;;349846;28;946;-77
2022/03/15 01:00:21;;;;;;;;;;;;;;;;;;349921;28;928;-77
2022/03/15 01:00:32;;;;;;;;;;;;;;;;;;349973;28;881;-77
2022/03/15 01:00:48;;;;;;;;;;;;;;;;;;349979;28;976;-77
2022/03/15 01:00:58;;;;;;;;;;;;;;;;;;349961;28;952;-77
2022/03/15 01:01:08;;;;;;;;;;;;;;;;;;349832;28;1021;-77
2022/03/15 01:01:18;;;;;;;;;;;;;;;;;;349930;28;841;-77
2022/03/15 01:01:29;;;;;;;;;;;;;;;;;;349895;28;1086;-77
2022/03/15 01:01:39;;;;;;;;;;;;;;;;;;349945;28;900;-77
2022/03/15 01:01:49;;;;;;;;;;;;;;;;;;349927;28;976;-77
2022/03/15 01:02:00;;;;;;;;;;;;;;;;;;349970;28;956;-77
2022/03/15 01:02:10;;;;;;;;;;;;;;;;;;349853;28;837;-77
2022/03/15 01:02:20;;;;;;;;;;;;;;;;;;349876;28;893;-77
2022/03/15 01:02:30;;;;;;;;;;;;;;;;;;349976;28;873;-77
2022/03/15 01:02:40;;;;;;;;;;;;;;;;;;349996;28;948;-77
2022/03/15 01:02:51;;;;;;;;;;;;;;;;;;349981;28;960;-77
2022/03/15 01:03:01;;;;;;;;;;;;;;;;;;349860;28;1913;-77
2022/03/15 01:03:12;;;;;;;;;;;;;;;;;;349840;28;1023;-77
2022/03/15 01:03:22;;;;;;;;;;;;;;;;;;349873;28;1016;-77
2022/03/15 01:03:32;;;;;;;;;;;;;;;;;;349932;28;873;-77
2022/03/15 01:03:42;;;;;;;;;;;;;;;;;;349965;28;889;-77
2022/03/15 01:03:53;;;;;;;;;;;;;;;;;;349924;28;1027;-77
2022/03/15 01:04:03;;;;;;;;;;;;;;;;;;349881;28;904;-77
2022/03/15 01:04:13;;;;;;;;;;;;;;;;;;349972;28;1617;-77
2022/03/15 01:04:24;;;;;;;;;;;;;;;;;;351262;28;1491;-77
2022/03/15 01:04:34;;;;;;;;;;;;;;;;;;351342;28;940;-77
2022/03/15 01:04:44;;;;;;;;;;;;;;;;;;351350;28;849;-77
2022/03/15 01:04:55;;;;;;;;;;;;;;;;;;351265;28;999;-77
2022/03/15 01:05:06;;;;;;;;;;;;;;;;;;351372;28;793;-77
2022/03/15 01:05:16;;;;;;;;;;;;;;;;;;350457;28;1616;-77
2022/03/15 01:05:27;;;;;;;;;;;;;;;;;;350225;28;1763;-77
2022/03/15 01:05:37;;;;;;;;;;;;;;;;;;351373;28;968;-77
2022/03/15 01:05:47;;;;;;;;;;;;;;;;;;351254;28;1588;-77
2022/03/15 01:05:58;;;;;;;;;;;;;;;;;;349953;28;1657;-77
2022/03/15 01:06:09;;;;;;;;;;;;;;;;;;351257;28;1078;-77
2022/03/15 01:06:20;;;;;;;;;;;;;;;;;;351273;28;833;-77
2022/03/15 01:06:30;;;;;;;;;;;;;;;;;;351371;28;802;-77
2022/03/15 01:06:42;;;;;;;;;;;;;;;;;;351285;28;879;-77
2022/03/15 01:06:52;;;;;;;;;;;;;;;;;;353960;28;1285;-77
2022/03/15 01:07:03;;;;;;;;;;;;;;;;;;353926;28;987;-77
2022/03/15 01:07:13;;;;;;;;;;;;;;;;;;353699;28;1124;-77
2022/03/15 01:07:23;;;;;;;;;;;;;;;;;;352888;28;1651;-77
2022/03/15 01:07:33;;;;;;;;;;;;;;;;;;353460;28;1743;-77
2022/03/15 01:07:44;;;;;;;;;;;;;;;;;;354096;28;805;-77
2022/03/15 01:07:54;;;;;;;;;;;;;;;;;;354064;28;927;-77
2022/03/15 01:08:04;;;;;;;;;;;;;;;;;;354112;28;884;-77
2022/03/15 01:08:15;;;;;;;;;;;;;;;;;;353987;28;971;-77
2022/03/15 01:08:25;;;;;;;;;;;;;;;;;;353981;28;923;-77
2022/03/15 01:08:35;;;;;;;;;;;;;;;;;;354048;28;982;-77
2022/03/15 01:08:45;;;;;;;;;;;;;;;;;;353441;28;853;-77
2022/03/15 01:08:56;;;;;;;;;;;;;;;;;;351329;28;876;-77
2022/03/15 01:09:06;;;;;;;;;;;;;;;;;;350809;28;1644;-77
2022/03/15 01:09:17;;;;;;;;;;;;;;;;;;350470;28;1799;-77
2022/03/15 01:09:27;;;;;;;;;;;;;;;;;;351373;28;1051;-77
2022/03/15 01:09:38;;;;;;;;;;;;;;;;;;351389;28;896;-77
2022/03/15 01:09:48;;;;;;;;;;;;;;;;;;351199;28;994;-77
2022/03/15 01:09:58;;;;;;;;;;;;;;;;;;351323;28;897;-77
2022/03/15 01:10:09;;;;;;;;;;;;;;;;;;351345;28;932;-77
2022/03/15 01:10:19;;;;;;;;;;;;;;;;;;351383;28;860;-77
2022/03/15 01:10:30;;;;;;;;;;;;;;;;;;351219;28;932;-77
2022/03/15 01:10:41;;;;;;;;;;;;;;;;;;351347;28;913;-77
2022/03/15 01:10:51;;;;;;;;;;;;;;;;;;351361;28;957;-77
2022/03/15 01:11:05;;;;;;;;;;;;;;;;;;351373;28;789;-77
2022/03/15 01:11:15;;;;;;;;;;;;;;;;;;351307;28;987;-77
2022/03/15 01:11:25;;;;;;;;;;;;;;;;;;351093;28;1553;-77
2022/03/15 01:11:36;;;;;;;;;;;;;;;;;;351195;28;1017;-77
2022/03/15 01:11:46;;;;;;;;;;;;;;;;;;351317;28;932;-77
2022/03/15 01:11:57;;;;;;;;;;;;;;;;;;351276;28;988;-77
2022/03/15 01:12:08;;;;;;;;;;;;;;;;;;351326;28;936;-77
2022/03/15 01:12:19;;;;;;;;;;;;;;;;;;351304;28;1093;-77
2022/03/15 01:12:29;;;;;;;;;;;;;;;;;;351273;28;873;-77
2022/03/15 01:12:39;;;;;;;;;;;;;;;;;;351240;28;1023;-77
2022/03/15 01:12:49;;;;;;;;;;;;;;;;;;350934;28;1639;-77
2022/03/15 01:13:00;;;;;;;;;;;;;;;;;;349758;28;1902;-77
2022/03/15 01:13:11;;;;;;;;;;;;;;;;;;349925;28;1038;-77
2022/03/15 01:13:21;;;;;;;;;;;;;;;;;;349961;28;786;-77
2022/03/15 01:13:31;;;;;;;;;;;;;;;;;;349877;28;1000;-77
2022/03/15 01:13:41;;;;;;;;;;;;;;;;;;349864;28;1031;-77
2022/03/15 01:13:52;;;;;;;;;;;;;;;;;;349844;28;992;-77
2022/03/15 01:14:02;;;;;;;;;;;;;;;;;;349817;28;1019;-77
2022/03/15 01:14:13;;;;;;;;;;;;;;;;;;349933;28;961;-77
2022/03/15 01:14:25;;;;;;;;;;;;;;;;;;349930;28;857;-77
2022/03/15 01:14:35;;;;;;;;;;;;;;;;;;349797;28;932;-77
2022/03/15 01:14:46;;;;;;;;;;;;;;;;;;350022;28;877;-77
2022/03/15 01:14:56;;;;;;;;;;;;;;;;;;349918;28;964;-77
2022/03/15 01:15:07;;;;;;;;;;;;;;;;;;349410;28;1581;-77
2022/03/15 01:15:17;;;;;;;;;;;;;;;;;;350027;28;1611;-77
2022/03/15 01:15:29;;;;;;;;;;;;;;;;;;350342;28;1593;-77
2022/03/15 01:15:43;;;;;;;;;;;;;;;;;;351341;28;995;-77
2022/03/15 01:15:53;;;;;;;;;;;;;;;;;;351387;28;821;-77